Latest Weather Observations for Walungurru (Kintore)

IDD60801

Issued at 12:31 pm CST Tuesday 30 November 2021 (issued every 10 minutes, with the page automatically refreshed every 10 minutes)

About weather observations | Map of weather stations | Latest weather observations for NT | Other Formats
Station Details ID: 015664 Name: WALUNGURRU AIRPORT Lat: -23.27 Lon: 129.38 Height: 454.3 m
Data from the previous 72 hours. | See also: Recent months at Walungurru (Kintore)
Date/Time
CST
Temp
°C
App
Temp
°C
Dew
Point
°C
Rel
Hum
%
Delta-T
°C
Wind Press
QNH
hPa
Press
MSL
hPa
Rain since
9am
mm
Dir  Spd
km/h
Gust
km/h
Spd
kts
Gust
kts
30/12:30pm 35.8 31.1 -2.0 9 18.6 NNW 13 26 7 14 1010.8 1007.2 0.0
30/12:00pm 35.8 30.5 -0.5 10 18.3 N 17 26 9 14 1011.2 1007.6 0.0
30/11:30am 35.0 29.4 0.2 11 17.6 NNW 19 30 10 16 1011.8 1008.2 0.0
30/11:00am 35.5 29.8 0.6 11 17.8 NNW 20 33 11 18 1012.1 1008.5 0.0
30/10:30am 34.3 28.3 0.8 12 17.0 N 22 28 12 15 1012.5 1008.9 0.0
30/10:00am 33.0 27.5 0.9 13 16.2 N 19 32 10 17 1012.7 1009.1 0.0
30/09:30am 32.3 26.6 0.4 13 15.9 NNE 20 30 11 16 1012.9 1009.3 0.0
30/09:00am 30.7 25.4 2.0 16 14.6 NE 19 24 10 13 1012.8 1009.2 0.0
30/08:30am 29.2 24.1 3.2 19 13.3 NE 19 24 10 13 1012.8 1009.2 0.0
30/08:00am 27.5 21.9 3.2 21 12.3 NE 22 30 12 16 1012.6 1009.0 0.0
30/07:30am 26.2 21.0 3.5 23 11.5 ENE 20 24 11 13 1012.3 1008.7 0.0
30/07:00am 25.3 19.9 2.7 23 11.2 ENE 20 28 11 15 1011.9 1008.3 0.0
30/06:30am 24.7 19.4 2.8 24 10.8 ENE 20 30 11 16 1011.3 1007.7 0.0
30/06:00am 24.8 19.0 2.3 23 11.1 ENE 22 28 12 15 1010.9 1007.3 0.0
30/05:30am 24.8 19.9 1.7 22 11.2 ENE 17 24 9 13 1010.6 1007.0 0.0
30/05:00am 24.2 20.0 1.8 23 10.8 ENE 13 19 7 10 1010.3 1006.7 0.0
30/04:30am 22.8 19.7 3.4 28 9.6 SE 9 9 5 5 1010.1 1006.5 0.0
30/04:00am 23.1 19.9 3.1 27 9.8 SE 9 11 5 6 1010.1 1006.5 0.0
30/03:30am 23.8 20.2 3.2 26 10.2 SSE 11 15 6 8 1010.2 1006.6 0.0
30/03:00am 23.4 19.6 3.9 28 9.8 SSE 13 15 7 8 1010.0 1006.4 0.0
30/02:30am 24.5 20.6 3.2 25 10.6 SSE 13 17 7 9 1010.2 1006.6 0.0
30/02:00am 22.0 19.4 4.1 31 8.9 W 7 15 4 8 1010.3 1006.7 0.0
30/01:30am 23.3 20.7 3.3 27 9.9 N 6 7 3 4 1010.6 1007.0 0.0
30/01:00am 25.6 22.2 1.7 21 11.7 ENE 9 11 5 6 1010.7 1007.1 0.0
30/12:30am 25.6 22.7 1.7 21 11.7 NE 6 9 3 5 1011.0 1007.4 0.0
30/12:00am 26.4 23.2 0.9 19 12.3 SSE 7 7 4 4 1011.1 1007.5 0.0
 
Date/Time
CST
Temp
°C
App
Temp
°C
Dew
Point
°C
Rel
Hum
%
Delta-T
°C
Wind Press
QNH
hPa
Press
MSL
hPa
Rain since
9am
mm
Dir  Spd
km/h
Gust
km/h
Spd
kts
Gust
kts
29/11:30pm 27.7 24.1 0.5 17 13.2 SE 9 13 5 7 1011.4 1007.8 0.0
29/11:00pm 27.7 24.5 0.5 17 13.2 ENE 7 13 4 7 1011.5 1008.0 0.0
29/10:30pm 27.7 24.6 1.2 18 13.0 SSE 7 9 4 5 1011.3 1007.7 0.0
29/10:00pm 28.5 24.6 1.1 17 13.5 SSE 11 13 6 7 1011.2 1007.6 0.0
29/09:30pm 28.3 26.6 1.7 18 13.2 CALM 0 6 0 3 1011.0 1007.4 0.0
29/09:00pm 29.6 25.6 0.2 15 14.4 ESE 11 13 6 7 1010.7 1007.1 0.0
29/08:30pm 29.8 25.7 -0.5 14 14.7 ESE 11 11 6 6 1010.5 1006.9 0.0
29/08:00pm 31.2 27.4 -0.5 13 15.5 SE 9 13 5 7 1010.3 1006.7 0.0
29/07:30pm 32.9 29.4 -1.4 11 16.7 S 7 9 4 5 1010.1 1006.5 0.0
29/07:00pm 34.6 29.4 -2.9 9 18.0 W 15 19 8 10 1009.7 1006.1 0.0
29/06:30pm 35.1 29.9 -2.5 9 18.2 SSW 15 20 8 11 1009.4 1005.7 0.0
29/06:00pm 35.8 30.7 -2.0 9 18.6 SW 15 19 8 10 1009.0 1005.4 0.0
29/05:30pm 36.0 32.1 -1.8 9 18.7 SSE 9 19 5 10 1008.9 1005.3 0.0
29/05:00pm 35.5 30.7 -2.2 9 18.4 WSW 13 24 7 13 1009.0 1005.4 0.0
29/04:30pm 35.7 31.4 -2.0 9 18.5 SSW 11 24 6 13 1009.0 1005.4 0.0
29/04:00pm 35.7 30.2 -2.0 9 18.5 WSW 17 28 9 15 1009.5 1005.8 0.0
29/03:30pm 36.2 32.3 -1.7 9 18.8 N 9 17 5 9 1009.7 1006.1 0.0
29/03:00pm 35.7 31.7 -2.0 9 18.5 W 9 22 5 12 1010.2 1006.6 0.0
29/02:30pm 35.7 31.0 -2.0 9 18.5 S 13 20 7 11 1010.5 1006.9 0.0
29/02:00pm 35.2 29.5 -1.0 10 18.0 S 19 26 10 14 1010.9 1007.3 0.0
29/01:30pm 35.3 30.0 -0.9 10 18.0 NW 17 24 9 13 1011.4 1007.8 0.0
29/01:00pm 33.8 29.5 -2.0 10 17.3 SE 11 15 6 8 1012.1 1008.5 0.0
29/12:30pm 33.5 28.7 -2.3 10 17.2 SSW 13 20 7 11 1012.6 1009.0 0.0
29/12:00pm 33.7 29.5 -0.8 11 17.0 NW 11 20 6 11 1012.9 1009.3 0.0
29/11:30am 33.1 29.0 -0.1 12 16.5 N 11 19 6 10 1013.2 1009.6 0.0
29/11:00am 32.5 27.8 0.6 13 16.0 NE 15 28 8 15 1013.5 1010.0 0.0
29/10:30am 32.5 26.8 0.6 13 16.0 NE 20 26 11 14 1013.6 1010.1 0.0
29/10:00am 30.9 25.2 0.3 14 15.1 NE 20 28 11 15 1013.9 1010.4 0.0
29/09:30am 30.2 24.1 0.7 15 14.6 ENE 22 30 12 16 1014.2 1010.6 0.0
29/09:00am 28.8 21.7 1.3 17 13.6 NE 28 33 15 18 1014.3 1010.7 0.0
29/08:30am 27.7 20.6 1.2 18 13.0 ENE 28 33 15 18 1014.2 1010.6 0.0
29/08:00am 26.1 18.6 1.4 20 12.0 ENE 30 39 16 21 1013.9 1010.4 0.0
29/07:30am 24.1 16.7 1.7 23 10.8 ENE 30 37 16 20 1013.5 1010.0 0.0
29/07:00am 23.1 16.4 1.5 24 10.3 ENE 26 35 14 19 1013.2 1009.6 0.0
29/06:30am 22.3 16.0 1.3 25 9.9 ENE 24 30 13 16 1012.8 1009.2 0.0
29/06:00am 22.1 15.7 1.2 25 9.9 ENE 24 30 13 16 1012.5 1008.9 0.0
29/05:30am 22.4 16.0 0.9 24 10.1 ENE 24 35 13 19 1012.3 1008.7 0.0
29/05:00am 22.7 16.3 1.1 24 10.2 ENE 24 30 13 16 1012.1 1008.5 0.0
29/04:30am 23.2 16.8 0.9 23 10.5 ENE 24 28 13 15 1011.9 1008.3 0.0
29/04:00am 23.5 17.1 1.2 23 10.6 ENE 24 30 13 16 1011.7 1008.1 0.0
29/03:30am 24.1 17.6 0.4 21 11.2 ENE 24 32 13 17 1011.5 1008.0 0.0
29/03:00am 24.5 17.6 0.1 20 11.5 ENE 26 33 14 18 1011.8 1008.2 0.0
29/02:30am 24.4 18.3 0.7 21 11.3 ENE 22 30 12 16 1012.1 1008.5 0.0
29/02:00am 24.6 18.2 0.8 21 11.3 ENE 24 32 13 17 1012.4 1008.8 0.0
29/01:30am 25.6 18.7 0.3 19 12.0 E 26 37 14 20 1012.7 1009.1 0.0
29/01:00am 26.4 19.1 0.2 18 12.5 E 28 39 15 21 1013.1 1009.5 0.0
29/12:30am 27.8 20.7 -1.2 15 13.6 E 26 35 14 19 1013.2 1009.6 0.0
29/12:00am 27.7 20.0 -0.4 16 13.4 ESE 30 39 16 21 1013.4 1009.8 0.0
 
Date/Time
CST
Temp
°C
App
Temp
°C
Dew
Point
°C
Rel
Hum
%
Delta-T
°C
Wind Press
QNH
hPa
Press
MSL
hPa
Rain since
9am
mm
Dir  Spd
km/h
Gust
km/h
Spd
kts
Gust
kts
28/11:30pm 27.3 20.4 0.1 17 13.0 ESE 26 35 14 19 1013.7 1010.2 0.0
28/11:00pm 27.6 21.2 1.2 18 12.9 ESE 24 32 13 17 1013.7 1010.2 0.0
28/10:30pm 27.7 22.2 2.0 19 12.8 SE 20 32 11 17 1013.9 1010.4 0.0
28/10:00pm 28.8 23.3 0.5 16 13.8 ESE 19 24 10 13 1013.6 1010.1 0.0
28/09:30pm 28.3 24.4 0.9 17 13.4 SE 11 15 6 8 1013.4 1009.8 0.0
28/09:00pm 29.0 24.7 0.7 16 13.9 SE 13 19 7 10 1013.2 1009.6 0.0
28/08:30pm 29.4 25.0 0.1 15 14.3 SE 13 17 7 9 1013.0 1009.4 0.0
28/08:00pm 30.1 25.2 -0.3 14 14.8 SE 15 20 8 11 1012.7 1009.1 0.0
28/07:30pm 30.5 26.0 0.0 14 14.9 SE 13 20 7 11 1012.5 1008.9 0.0
28/07:00pm 31.6 27.5 -0.1 13 15.6 SSE 11 17 6 9 1012.1 1008.5 0.0
28/06:30pm 32.2 27.3 -0.8 12 16.1 SSE 15 20 8 11 1011.9 1008.3 0.0
28/06:00pm 32.7 28.6 -0.4 12 16.3 S 11 20 6 11 1011.5 1008.0 0.0
28/05:30pm 33.0 28.5 -0.2 12 16.5 S 13 22 7 12 1011.4 1007.8 0.0
28/05:00pm 33.2 28.0 0.0 12 16.5 SSW 17 24 9 13 1011.3 1007.7 0.0
28/04:30pm 33.3 29.1 -1.1 11 16.9 SSW 11 19 6 10 1011.4 1007.8 0.0
28/04:00pm 32.9 28.0 -0.2 12 16.4 ESE 15 32 8 17 1011.8 1008.2 0.0
28/03:30pm 32.4 28.6 -0.6 12 16.2 SE 9 13 5 7 1012.1 1008.5 0.0
28/03:00pm 32.9 27.4 0.9 13 16.2 SSE 19 26 10 14 1012.4 1008.8 0.0
28/02:30pm 32.7 28.2 -0.4 12 16.3 W 13 22 7 12 1012.9 1009.3 0.0
28/02:00pm 32.2 28.2 0.3 13 15.9 SSE 11 17 6 9 1013.5 1010.0 0.0
28/01:30pm 32.1 27.8 1.3 14 15.6 WSW 13 19 7 10 1014.1 1010.5 0.0
28/01:00pm 31.6 28.0 0.9 14 15.4 ENE 9 20 5 11 1014.6 1011.0 0.0
28/12:30pm 31.0 27.3 2.3 16 14.6 N 11 17 6 9 1015.0 1011.4 0.0
28/12:00pm 30.6 26.4 1.9 16 14.5 N 13 26 7 14 1015.4 1011.8 0.0
28/11:30am 30.1 25.4 3.2 18 13.9 E 17 26 9 14 1015.9 1012.4 0.0
28/11:00am 30.2 25.3 4.0 19 13.7 NE 19 30 10 16 1016.2 1012.7 0.0
28/10:30am 28.6 23.5 4.2 21 12.7 ENE 20 30 11 16 1016.6 1013.0 0.0
28/10:00am 28.2 22.8 4.5 22 12.4 ENE 22 32 12 17 1016.7 1013.1 0.0
28/09:30am 27.1 21.4 4.8 24 11.6 ENE 24 32 13 17 1016.7 1013.1 0.0
28/09:00am 26.8 20.8 5.1 25 11.3 ENE 26 35 14 19 1016.7 1013.1 0.0
28/08:30am 25.6 19.2 5.2 27 10.6 ENE 28 37 15 20 1016.6 1013.0 0.0
28/08:00am 24.2 17.4 5.1 29 9.8 ENE 30 41 16 22 1016.5 1012.9 0.0
28/07:30am 23.1 17.1 5.5 32 9.0 ENE 26 35 14 19 1016.2 1012.7 0.0
28/07:00am 22.7 17.1 5.2 32 8.9 E 24 33 13 18 1015.8 1012.3 0.0
28/06:30am 21.9 16.0 5.8 35 8.3 ENE 26 33 14 18 1015.5 1012.0 0.0
28/06:00am 22.0 16.0 5.4 34 8.5 E 26 33 14 18 1015.0 1011.4 0.0
28/05:30am 22.2 16.6 5.2 33 8.6 E 24 33 13 18 1014.6 1011.0 0.0
28/05:00am 22.1 16.4 5.1 33 8.6 E 24 32 13 17 1014.5 1010.9 0.0
28/04:30am 22.2 16.6 5.2 33 8.6 E 24 33 13 18 1014.3 1010.7 0.0
28/04:00am 22.8 17.1 4.8 31 9.1 E 24 33 13 18 1014.2 1010.6 0.0
28/03:30am 23.4 16.8 4.4 29 9.6 E 28 35 15 19 1013.9 1010.4 0.0
28/03:00am 23.6 16.7 4.5 29 9.7 E 30 37 16 20 1014.1 1010.5 0.0
28/02:30am 24.1 16.7 4.0 27 10.1 E 32 43 17 23 1014.2 1010.6 0.0
28/02:00am 25.2 18.9 3.8 25 10.8 E 26 37 14 20 1014.2 1010.6 0.0
28/01:30am 25.5 17.1 3.5 24 11.1 ESE 37 46 20 25 1014.3 1010.7 0.0
28/01:20am 25.4 17.7 3.4 24 11.1 ESE 33 52 18 28 1014.4 1010.8 0.0
28/01:00am 25.5 17.7 2.9 23 11.3 ESE 33 46 18 25 1014.6 1011.0 0.0
28/12:30am 26.5 19.5 1.7 20 12.2 ESE 28 37 15 20 1014.8 1011.2 0.0
28/12:00am 26.3 20.0 1.6 20 12.1 ESE 24 35 13 19 1015.0 1011.4 0.0
 
Date/Time
CST
Temp
°C
App
Temp
°C
Dew
Point
°C
Rel
Hum
%
Delta-T
°C
Wind Press
QNH
hPa
Press
MSL
hPa
Rain since
9am
mm
Dir  Spd
km/h
Gust
km/h
Spd
kts
Gust
kts
27/11:30pm 26.8 19.8 -0.3 17 12.9 ESE 26 33 14 18 1015.1 1011.5 0.0
27/11:00pm 27.2 20.5 -0.8 16 13.2 ESE 24 33 13 18 1015.2 1011.6 0.0
27/10:30pm 27.5 21.1 -1.4 15 13.5 ESE 22 35 12 19 1015.2 1011.6 0.0
27/10:00pm 27.4 20.8 -0.6 16 13.3 SE 24 32 13 17 1015.0 1011.4 0.0
27/09:30pm 27.5 21.3 -0.5 16 13.3 SE 22 32 12 17 1014.8 1011.2 0.0
27/09:00pm 27.9 21.7 -0.2 16 13.5 SE 22 32 12 17 1014.4 1010.8 0.0
27/08:30pm 27.8 22.8 1.3 18 13.0 SE 17 26 9 14 1014.2 1010.6 0.0
27/08:00pm 28.3 23.7 1.7 18 13.2 SE 15 19 8 10 1013.8 1010.3 0.0
27/07:30pm 29.5 24.5 1.1 16 14.1 SE 17 22 9 12 1013.4 1009.8 0.0
27/07:00pm 30.4 24.9 1.8 16 14.4 SE 20 28 11 15 1013.0 1009.4 0.0
27/06:30pm 31.1 25.4 0.5 14 15.2 SE 20 30 11 16 1012.9 1009.3 0.0
27/06:00pm 31.5 26.0 0.8 14 15.3 SSE 19 28 10 15 1012.7 1009.1 0.0
27/05:30pm 31.7 26.1 1.0 14 15.4 SSE 20 32 11 17 1012.6 1009.0 0.0
27/05:00pm 32.1 27.6 2.2 15 15.3 SE 15 28 8 15 1012.6 1009.0 0.0
27/04:30pm 31.3 27.2 2.5 16 14.8 SE 13 26 7 14 1012.7 1009.1 0.0
27/04:00pm 31.9 26.6 3.0 16 15.0 S 20 32 11 17 1013.0 1009.4 0.0
27/03:30pm 31.8 27.1 2.9 16 15.0 S 17 24 9 13 1013.1 1009.5 0.0
27/03:00pm 31.2 26.9 3.3 17 14.5 S 15 28 8 15 1013.4 1009.8 0.0
27/02:30pm 31.6 27.5 4.4 18 14.4 S 15 22 8 12 1013.7 1010.2 0.0
27/02:00pm 31.0 26.6 4.7 19 14.0 S 17 32 9 17 1014.4 1010.8 0.0
27/01:30pm 31.0 27.2 3.9 18 14.2 ESE 13 32 7 17 1014.7 1011.1 0.0
27/01:00pm 30.6 25.7 5.1 20 13.6 SSE 20 30 11 16 1015.2 1011.6 0.0

Other formats

Comma delimited format used in spreadsheet applications
http://www.bom.gov.au/fwo/IDD60801/IDD60801.94321.axf

JavaScript Object Notation format (JSON) in row-major order
http://www.bom.gov.au/fwo/IDD60801/IDD60801.94321.json

Data quality

Most of these data are generated automatically and are frequently updated. Quality checks on data are not normally performed. It is possible for incorrect values to appear. Refer to information at About Latest Weather Observations and please check the disclaimer before using these data.